Date,TemperatureHighF,TemperatureAvgF,TemperatureLowF,DewpointHighF,DewpointAvgF,DewpointLowF,HumidityHigh,HumidityAvg,HumidityLow,PressureMaxIn,PressureMinIn,WindSpeedMaxMPH,WindSpeedAvgMPH,GustSpeedMaxMPH,PrecipitationSumIn
2013-2-1,40,23,16,30,14,6,90,67,56,30.51,30.01,16,5,0,0.01
2013-2-2,32,25,17,31,20,12,96,84,51,30.51,30.20,7,2,0,0.00
2013-2-3,34,31,28,31,28,21,93,86,74,30.25,30.06,12,4,0,0.00
2013-2-4,40,29,20,33,24,17,94,84,60,30.28,30.10,6,2,0,0.21
2013-2-5,45,36,32,38,33,29,97,89,67,30.12,30.06,7,2,0,0.14
2013-2-6,50,40,32,38,32,29,96,75,48,30.36,30.11,8,3,0,0.00
2013-2-7,49,42,32,39,33,28,90,74,57,30.36,30.09,11,4,0,0.04
2013-2-8,49,40,34,42,36,28,97,84,53,30.33,30.01,17,6,0,0.15
2013-2-9,46,34,29,30,26,20,88,72,38,30.46,30.32,13,3,0,0.00
2013-2-10,56,44,31,43,27,12,89,57,17,30.45,30.14,15,4,0,0.15
2013-2-11,55,50,47,50,43,31,95,77,53,30.16,30.07,17,3,0,0.01
2013-2-12,49,43,35,38,29,22,92,60,34,30.26,30.01,8,2,0,0.08
2013-2-13,49,41,35,43,37,31,94,87,77,30.03,29.70,17,4,0,0.36
2013-2-14,48,37,32,32,29,25,92,74,48,30.18,30.04,10,3,0,0.00
2013-2-15,53,38,29,38,32,28,96,82,44,30.23,30.06,12,2,0,0.10
2013-2-16,32,29,24,30,24,15,91,80,55,30.16,30.02,13,4,0,0.01
2013-2-17,32,25,20,16,11,7,72,56,39,30.41,30.14,16,5,0,0.00
2013-2-18,53,34,21,34,23,15,81,66,42,30.51,30.18,7,2,0,0.01
2013-2-19,44,41,34,40,28,13,93,64,35,30.18,29.99,20,5,0,0.06
2013-2-20,39,32,27,18,14,9,68,49,29,30.32,30.17,16,4,0,0.00
2013-2-21,51,36,22,36,20,-2,91,58,11,30.38,30.20,7,1,0,0.14
2013-2-22,52,43,37,44,38,34,92,82,66,30.31,30.12,9,3,0,0.36
2013-2-23,54,46,41,47,43,39,96,89,77,30.14,29.92,5,1,0,0.04
2013-2-24,50,42,32,44,32,27,88,70,44,30.17,29.96,11,3,0,0.00
2013-2-25,52,38,29,34,28,25,87,69,44,30.21,30.07,13,3,0,0.00
2013-2-26,52,42,34,44,37,25,91,82,64,30.07,29.58,13,4,0,0.19
2013-2-27,45,39,35,35,33,31,91,78,68,29.92,29.74,13,4,0,0.10
2013-2-28,34,32,31,32,27,24,92,81,71,30.07,29.85,12,5,0,0.08